Time;durP1;ratioP1;P1;durP2;ratioP2;P2;SDS_P1;SDS_P2;PMS_P1;PMS_P2;Temp;Humidity;BMP_temperature;BMP_pressure;BME280_temperature;BME280_humidity;BME280_pressure;Samples;Min_cycle;Max_cycle;Signal;HPM_P1;HPM_P2
2022/02/04 00:27:58;;;;;;;4.50;4.20;;;17.60;55.00;;;;;;5030706;28;20654;-61
2022/02/04 00:30:28;;;;;;;4.38;4.07;;;17.60;54.90;;;;;;5052596;28;20197;-60
2022/02/04 00:32:57;;;;;;;4.50;4.13;;;17.50;54.90;;;;;;5052618;28;20516;-60
2022/02/04 00:38:02;;;;;;;4.72;4.40;;;17.60;55.00;;;;;;5052759;28;20164;-61
2022/02/04 00:40:32;;;;;;;4.30;4.00;;;17.50;54.90;;;;;;5052770;28;20257;-61
2022/02/04 00:43:01;;;;;;;4.47;4.18;;;17.60;55.00;;;;;;5052151;28;20183;-61
2022/02/04 00:45:52;;;;;;;4.30;4.00;;;17.50;54.90;;;;;;5052821;28;20209;-61
2022/02/04 00:53:28;;;;;;;4.20;3.90;;;17.50;55.00;;;;;;5052426;28;20247;-62
2022/02/04 01:26:09;;;;;;;4.60;4.30;;;17.40;54.90;;;;;;5055108;28;20173;-61
2022/02/04 01:28:37;;;;;;;4.55;4.25;;;17.40;54.90;;;;;;5056221;28;20258;-60
2022/02/04 01:31:03;;;;;;;4.25;3.95;;;17.40;54.90;;;;;;5054988;28;20175;-61
2022/02/04 01:33:29;;;;;;;4.65;4.35;;;17.40;54.90;;;;;;5056355;28;20185;-60
2022/02/04 01:35:55;;;;;;;4.65;4.25;;;17.40;54.90;;;;;;5055527;28;20711;-62
2022/02/04 01:38:26;;;;;;;4.88;4.57;;;17.30;54.80;;;;;;5054965;28;20178;-60
2022/02/04 01:40:51;;;;;;;5.13;4.72;;;17.30;54.90;;;;;;5054973;28;20189;-61
2022/02/04 01:43:21;;;;;;;5.00;4.60;;;17.30;54.80;;;;;;5055473;28;20262;-61
2022/02/04 01:46:05;;;;;;;4.43;4.13;;;17.30;54.90;;;;;;5054928;28;20172;-61
2022/02/04 01:48:31;;;;;;;4.53;4.13;;;17.30;54.90;;;;;;5055816;28;20172;-61
2022/02/04 01:50:57;;;;;;;4.57;4.22;;;17.30;54.90;;;;;;5054669;28;20180;-62
2022/02/04 01:53:29;;;;;;;4.75;4.35;;;17.30;54.90;;;;;;5055193;28;20249;-62
2022/02/04 01:55:59;;;;;;;4.68;4.38;;;17.30;54.90;;;;;;5055121;28;20691;-62
2022/02/04 01:58:25;;;;;;;4.10;3.80;;;17.30;54.90;;;;;;5054470;28;20752;-61
2022/02/04 02:00:50;;;;;;;4.40;4.10;;;17.30;54.90;;;;;;5055388;28;20285;-61
2022/02/04 02:03:16;;;;;;;4.47;4.18;;;17.30;54.90;;;;;;5054872;28;20240;-60
2022/02/04 02:05:41;;;;;;;4.25;3.95;;;17.30;55.00;;;;;;5036607;28;20208;-61
2022/02/04 02:08:08;;;;;;;4.43;4.13;;;17.30;54.90;;;;;;5055013;28;20250;-61
2022/02/04 02:10:34;;;;;;;4.68;4.38;;;17.20;54.90;;;;;;5054965;28;20780;-62
2022/02/04 02:13:12;;;;;;;4.78;4.38;;;17.20;54.80;;;;;;5054053;28;20266;-63
2022/02/04 02:15:55;;;;;;;4.97;4.57;;;17.20;54.80;;;;;;5055008;28;20768;-63
2022/02/04 02:42:47;;;;;;;4.63;4.32;;;17.20;54.80;;;;;;5053855;28;20164;-61
2022/02/04 02:58:10;;;;;;;4.60;4.20;;;17.10;54.70;;;;;;5054056;28;20175;-61
2022/02/04 03:03:37;;;;;;;4.47;4.07;;;17.10;54.70;;;;;;5011743;28;20177;-60
2022/02/04 03:06:02;;;;;;;4.30;4.00;;;17.10;54.80;;;;;;5045029;28;20589;-61
2022/02/04 03:08:28;;;;;;;4.60;4.30;;;17.10;54.70;;;;;;5052985;28;20182;-61
2022/02/04 03:10:56;;;;;;;4.35;4.05;;;17.00;54.70;;;;;;5053646;28;20167;-63
2022/02/04 03:13:22;;;;;;;4.10;3.80;;;17.00;54.70;;;;;;5053927;28;20646;-65
2022/02/04 03:15:56;;;;;;;4.25;3.92;;;17.00;54.70;;;;;;5053095;28;20222;-63
2022/02/04 03:18:24;;;;;;;4.22;3.92;;;17.00;54.70;;;;;;5054461;28;20330;-62
2022/02/04 03:20:52;;;;;;;4.60;4.20;;;17.00;54.70;;;;;;5053593;28;20182;-63
2022/02/04 03:23:19;;;;;;;4.30;4.00;;;17.00;54.70;;;;;;5052332;28;20362;-62
2022/02/04 03:25:50;;;;;;;4.43;4.13;;;17.00;54.70;;;;;;5052852;28;20278;-61
2022/02/04 03:28:26;;;;;;;4.60;4.20;;;17.00;54.70;;;;;;5052809;28;20200;-61
2022/02/04 03:30:53;;;;;;;4.30;4.00;;;17.00;54.70;;;;;;5052007;28;20189;-61
2022/02/04 03:33:22;;;;;;;3.92;3.63;;;17.00;54.70;;;;;;5052527;28;20172;-61
2022/02/04 03:35:48;;;;;;;4.20;3.90;;;17.00;54.70;;;;;;5052849;28;20231;-62
2022/02/04 03:38:13;;;;;;;3.83;3.53;;;17.00;54.70;;;;;;5051586;28;20171;-61
2022/02/04 03:40:39;;;;;;;4.07;3.78;;;17.00;54.70;;;;;;5052741;28;20183;-61
2022/02/04 03:43:04;;;;;;;3.83;3.63;;;17.00;54.70;;;;;;5052586;28;20178;-63
2022/02/04 03:45:30;;;;;;;4.20;3.90;;;17.00;54.70;;;;;;5051940;28;20178;-61
2022/02/04 03:47:55;;;;;;;4.25;3.85;;;17.00;54.70;;;;;;5051164;28;20502;-62
2022/02/04 03:50:21;;;;;;;4.25;3.90;;;16.90;54.60;;;;;;5052186;28;20224;-61
2022/02/04 03:52:46;;;;;;;4.10;3.80;;;16.90;54.60;;;;;;5051479;28;20253;-62
2022/02/04 03:55:12;;;;;;;4.07;3.72;;;16.90;54.60;;;;;;5051799;28;20637;-62
2022/02/04 03:57:37;;;;;;;3.85;3.55;;;16.90;54.60;;;;;;5051351;28;20246;-61
2022/02/04 04:00:04;;;;;;;3.95;3.72;;;16.90;54.70;;;;;;5051765;28;20258;-62
2022/02/04 04:02:30;;;;;;;4.10;3.80;;;16.90;54.60;;;;;;5051800;28;20621;-60
2022/02/04 04:04:55;;;;;;;3.78;3.58;;;16.90;54.70;;;;;;5051256;28;20171;-61
2022/02/04 04:07:21;;;;;;;3.78;3.47;;;16.90;54.60;;;;;;5052365;28;20175;-60
2022/02/04 04:09:52;;;;;;;3.95;3.65;;;16.90;54.70;;;;;;5051990;28;20646;-62
2022/02/04 04:12:19;;;;;;;3.97;3.67;;;16.90;54.70;;;;;;5051425;28;20187;-62
2022/02/04 04:14:48;;;;;;;3.88;3.58;;;16.90;54.70;;;;;;5051692;28;20677;-62
2022/02/04 04:17:14;;;;;;;3.53;3.33;;;16.90;54.70;;;;;;5051694;28;20550;-62
2022/02/04 04:19:39;;;;;;;3.50;3.20;;;16.90;54.70;;;;;;5051173;28;20182;-62
2022/02/04 04:22:05;;;;;;;3.40;3.20;;;16.90;54.70;;;;;;5051620;28;20182;-62
2022/02/04 04:24:30;;;;;;;3.83;3.63;;;16.90;54.70;;;;;;5051748;28;20175;-62
2022/02/04 04:26:56;;;;;;;3.92;3.63;;;16.90;54.60;;;;;;5051088;28;20296;-62
2022/02/04 04:29:21;;;;;;;3.55;3.30;;;16.80;54.60;;;;;;5051873;28;20171;-60
2022/02/04 04:31:47;;;;;;;3.72;3.42;;;16.90;54.60;;;;;;5051780;28;20199;-61
2022/02/04 04:34:12;;;;;;;3.85;3.55;;;16.80;55.20;;;;;;5050964;28;20178;-61
2022/02/04 04:36:38;;;;;;;3.67;3.38;;;16.80;54.60;;;;;;5051564;28;20257;-61
2022/02/04 04:39:17;;;;;;;3.67;3.20;;;16.80;54.60;;;;;;5051475;28;20622;-62
2022/02/04 04:44:44;;;;;;;4.00;3.70;;;16.80;54.60;;;;;;5051321;28;20301;-61
2022/02/04 05:28:14;;;;;;;3.38;3.13;;;16.70;54.60;;;;;;5038479;28;20183;-60
2022/02/04 05:30:40;;;;;;;2.80;2.63;;;16.70;54.50;;;;;;5054401;28;20600;-61
2022/02/04 05:33:05;;;;;;;3.05;2.85;;;16.70;54.50;;;;;;5054387;28;20203;-60
2022/02/04 05:35:34;;;;;;;3.65;3.35;;;16.70;54.50;;;;;;5054694;28;20242;-61
2022/02/04 05:37:59;;;;;;;3.05;2.85;;;16.70;54.50;;;;;;5053708;28;20247;-62
2022/02/04 05:40:29;;;;;;;2.92;2.72;;;16.70;54.60;;;;;;5054526;28;20715;-62
2022/02/04 05:43:02;;;;;;;3.05;2.85;;;16.60;54.50;;;;;;5054432;28;20183;-61
2022/02/04 05:45:32;;;;;;;3.20;3.00;;;16.70;54.60;;;;;;5054688;28;20539;-61
2022/02/04 05:48:04;;;;;;;3.55;3.25;;;16.60;54.50;;;;;;5054225;28;20205;-62
2022/02/04 05:51:00;;;;;;;3.58;3.28;;;16.60;54.50;;;;;;5053787;28;20190;-62
2022/02/04 05:53:33;;;;;;;3.13;2.83;;;16.60;54.50;;;;;;5053265;28;20312;-62
2022/02/04 05:58:35;;;;;;;3.03;2.83;;;16.60;54.40;;;;;;5073564;28;20205;-60
2022/02/04 06:01:15;;;;;;;3.33;3.03;;;16.60;54.50;;;;;;5074127;28;20209;-61
2022/02/04 06:04:00;;;;;;;2.65;2.45;;;16.60;54.50;;;;;;5074420;28;20178;-61
2022/02/04 06:10:07;;;;;;;2.85;2.65;;;16.60;54.50;;;;;;5073813;28;20659;-62
2022/02/04 06:12:23;;;;;;;3.13;2.88;;;16.60;54.40;;;;;;5066245;28;20179;-64
2022/02/04 06:22:58;;;;;;;2.78;2.58;;;16.50;54.40;;;;;;5066741;28;20216;-61
2022/02/04 06:25:24;;;;;;;2.35;2.25;;;16.60;54.40;;;;;;5073092;28;20249;-61
2022/02/04 06:27:49;;;;;;;2.80;2.60;;;16.60;54.40;;;;;;5073841;28;20632;-61
2022/02/04 06:30:15;;;;;;;3.25;2.90;;;16.50;54.40;;;;;;5073637;28;20171;-60
2022/02/04 06:32:40;;;;;;;2.90;2.65;;;16.60;54.50;;;;;;5073251;28;20174;-60
2022/02/04 06:35:07;;;;;;;2.80;2.60;;;16.50;54.40;;;;;;5055413;28;20210;-60
2022/02/04 06:37:33;;;;;;;2.67;2.47;;;16.60;54.40;;;;;;5073658;28;20194;-61
2022/02/04 06:39:59;;;;;;;2.63;2.45;;;16.50;54.40;;;;;;5072697;28;20267;-62
2022/02/04 06:42:26;;;;;;;2.67;2.42;;;16.60;54.50;;;;;;5073771;28;20181;-61
2022/02/04 06:44:52;;;;;;;2.72;2.53;;;16.50;54.40;;;;;;5073614;28;20217;-61
2022/02/04 06:47:17;;;;;;;2.63;2.42;;;16.50;54.40;;;;;;5072821;28;20198;-61
2022/02/04 06:49:44;;;;;;;2.85;2.65;;;16.50;54.40;;;;;;5073866;28;20186;-61
2022/02/04 06:52:09;;;;;;;2.50;2.30;;;16.60;54.50;;;;;;5070977;28;20174;-61
2022/02/04 06:54:35;;;;;;;2.72;2.53;;;16.50;54.40;;;;;;5053118;28;20224;-61
2022/02/04 06:57:00;;;;;;;2.35;2.22;;;16.50;54.50;;;;;;5052918;28;20584;-60
2022/02/04 06:59:26;;;;;;;2.08;1.98;;;16.50;54.40;;;;;;5053053;28;20175;-60
2022/02/04 07:01:51;;;;;;;2.60;2.40;;;16.50;54.40;;;;;;5052542;28;20191;-61
2022/02/04 07:04:17;;;;;;;2.25;2.15;;;16.50;54.50;;;;;;5052894;28;20602;-60
2022/02/04 07:06:44;;;;;;;2.22;2.08;;;16.50;54.50;;;;;;5053465;28;20175;-60
2022/02/04 07:12:04;;;;;;;2.60;2.40;;;16.50;54.40;;;;;;5053091;28;20648;-62
2022/02/04 07:17:11;;;;;;;2.08;1.98;;;16.50;54.50;;;;;;5052889;28;20233;-62
2022/02/04 07:22:18;;;;;;;2.42;2.10;;;16.40;54.40;;;;;;5051484;28;20340;-61
2022/02/04 07:24:45;;;;;;;2.38;2.17;;;16.40;54.40;;;;;;5052648;28;20648;-61
2022/02/04 07:27:10;;;;;;;1.98;1.88;;;16.40;54.50;;;;;;5052644;28;20179;-60
2022/02/04 07:29:37;;;;;;;2.50;2.30;;;16.40;54.50;;;;;;5052276;28;20177;-60
2022/02/04 07:32:07;;;;;;;2.30;2.10;;;16.40;54.50;;;;;;5052463;28;20186;-60
2022/02/04 07:42:33;;;;;;;2.03;1.80;;;16.50;54.60;;;;;;5051892;28;20225;-60
2022/02/04 07:44:58;;;;;;;2.10;1.90;;;16.60;54.80;;;;;;5051978;28;20199;-62
2022/02/04 07:47:24;;;;;;;2.13;1.92;;;16.80;54.60;;;;;;5052358;28;20221;-62
2022/02/04 07:49:52;;;;;;;1.58;1.48;;;16.90;54.30;;;;;;5051496;28;20239;-65
2022/02/04 07:52:18;;;;;;;1.85;1.60;;;17.10;54.10;;;;;;5051818;28;20218;-67
2022/02/04 07:54:44;;;;;;;1.83;1.60;;;17.30;54.00;;;;;;5051893;28;20183;-67
2022/02/04 07:57:10;;;;;;;2.65;1.70;;;17.50;53.60;;;;;;5051220;28;20198;-67
2022/02/04 07:59:35;;;;;;;1.73;1.63;;;17.60;53.30;;;;;;5052069;28;20622;-67
2022/02/04 08:02:01;;;;;;;1.70;1.60;;;17.60;53.20;;;;;;5051508;28;20527;-66
2022/02/04 08:04:30;;;;;;;1.58;1.48;;;17.70;53.10;;;;;;5051374;28;20560;-66
2022/02/04 08:07:09;;;;;;;3.33;1.65;;;17.80;53.00;;;;;;5051753;28;20187;-66
2022/02/04 08:12:22;;;;;;;1.50;1.30;;;17.90;52.80;;;;;;5050973;28;20178;-66
2022/02/04 08:22:44;;;;;;;1.98;1.20;;;18.10;52.60;;;;;;5051884;28;20241;-64
2022/02/04 08:27:53;;;;;;;1.20;1.10;;;18.10;52.60;;;;;;5052134;28;20257;-68
2022/02/04 08:51:34;;;;;;;1.88;1.15;;;18.20;53.40;;;;;;5055785;28;20218;-69
2022/02/04 08:54:09;;;;;;;1.27;1.17;;;18.20;53.40;;;;;;5054781;28;20234;-69
2022/02/04 08:56:43;;;;;;;2.00;1.30;;;18.20;53.40;;;;;;5055973;28;20224;-69
2022/02/04 08:59:18;;;;;;;3.28;1.40;;;18.30;53.50;;;;;;5055683;28;20265;-69
2022/02/04 09:01:51;;;;;;;1.40;1.20;;;18.20;53.50;;;;;;5055279;28;20260;-69
2022/02/04 09:04:19;;;;;;;1.25;1.00;;;18.20;53.50;;;;;;5066587;28;20224;-69
2022/02/04 09:06:51;;;;;;;3.55;1.65;;;18.30;53.60;;;;;;5075735;28;20173;-68
2022/02/04 09:09:30;;;;;;;1.45;1.17;;;18.30;53.60;;;;;;5074861;28;20182;-69
2022/02/04 09:12:07;;;;;;;2.38;1.45;;;18.30;53.50;;;;;;5075432;28;20210;-68
2022/02/04 09:17:36;;;;;;;1.23;1.20;;;18.30;53.60;;;;;;5075263;28;20217;-68
2022/02/04 09:20:09;;;;;;;1.30;1.20;;;18.30;53.60;;;;;;5075385;28;20193;-68
2022/02/04 09:22:46;;;;;;;1.13;1.10;;;18.30;53.60;;;;;;5074326;28;20179;-68
2022/02/04 09:25:12;;;;;;;1.70;1.17;;;18.40;53.60;;;;;;5074534;28;20240;-67
2022/02/04 09:27:37;;;;;;;1.45;1.35;;;18.30;53.50;;;;;;5075080;28;20167;-68
2022/02/04 09:30:06;;;;;;;3.00;1.30;;;18.40;53.50;;;;;;5073889;28;20213;-69
2022/02/04 09:32:32;;;;;;;2.03;1.13;;;18.40;53.60;;;;;;5074760;28;20178;-69
2022/02/04 09:34:58;;;;;;;1.42;1.30;;;18.30;53.60;;;;;;5074294;28;20282;-69
2022/02/04 09:37:23;;;;;;;1.95;1.17;;;18.30;53.60;;;;;;5071502;28;20185;-69
2022/02/04 09:39:49;;;;;;;2.17;1.20;;;18.20;53.60;;;;;;5054367;28;20171;-69
2022/02/04 09:42:14;;;;;;;1.92;1.48;;;18.20;53.70;;;;;;5053539;28;20175;-69
2022/02/04 09:44:40;;;;;;;1.90;1.20;;;18.20;53.90;;;;;;5054753;28;20195;-65
2022/02/04 09:47:05;;;;;;;1.20;1.20;;;18.10;53.90;;;;;;5054177;28;20179;-65
2022/02/04 09:49:35;;;;;;;0.90;0.90;;;18.20;54.00;;;;;;5053646;28;20159;-66
2022/02/04 10:06:57;;;;;;;0.80;0.80;;;18.30;53.90;;;;;;5053369;28;20190;-67
2022/02/04 10:12:13;;;;;;;0.90;0.90;;;18.20;53.90;;;;;;5053300;28;20576;-66
2022/02/04 10:14:56;;;;;;;1.13;0.90;;;18.10;54.10;;;;;;5053763;28;20266;-66
2022/02/04 10:17:26;;;;;;;1.70;1.13;;;18.10;54.10;;;;;;5053078;28;20293;-66
2022/02/04 10:19:56;;;;;;;4.50;1.10;;;18.10;54.20;;;;;;5053892;28;20179;-67
2022/02/04 10:22:27;;;;;;;1.23;1.10;;;18.10;54.20;;;;;;5053968;28;20599;-66
2022/02/04 10:24:54;;;;;;;1.50;1.20;;;18.10;54.20;;;;;;5052850;28;20642;-66
2022/02/04 10:27:21;;;;;;;1.02;0.98;;;18.10;54.00;;;;;;5059042;28;20205;-66
2022/02/04 10:30:04;;;;;;;1.75;1.00;;;18.10;54.00;;;;;;5073476;28;20185;-67
2022/02/04 10:32:36;;;;;;;1.10;1.00;;;18.10;53.90;;;;;;5073024;28;20638;-67
2022/02/04 10:35:06;;;;;;;1.65;1.08;;;18.10;53.90;;;;;;5073326;28;20206;-68
2022/02/04 10:37:35;;;;;;;1.20;1.10;;;18.10;54.00;;;;;;5069926;28;20437;-68
2022/02/04 10:40:09;;;;;;;1.48;1.20;;;18.10;54.00;;;;;;5052636;28;20255;-68
2022/02/04 10:43:43;;;;;;;1.25;0.95;;;18.00;53.90;;;;;;5053435;28;20175;-68
2022/02/04 10:48:49;;;;;;;1.08;0.98;;;18.00;54.00;;;;;;5053105;28;20262;-68
2022/02/04 10:59:10;;;;;;;1.08;0.90;;;18.00;53.90;;;;;;5052594;28;20234;-68
2022/02/04 11:04:41;;;;;;;0.88;0.88;;;18.00;53.80;;;;;;5053107;28;20688;-67
2022/02/04 11:07:19;;;;;;;0.80;0.80;;;18.00;53.90;;;;;;5051887;28;20597;-66
2022/02/04 11:10:04;;;;;;;1.00;0.88;;;18.00;53.90;;;;;;5037702;28;20186;-66
2022/02/04 11:31:54;;;;;;;0.80;0.73;;;17.90;54.00;;;;;;5023969;28;20700;-67
2022/02/04 11:56:56;;;;;;;1.00;0.90;;;17.80;53.80;;;;;;5071308;28;20252;-67
2022/02/04 11:59:35;;;;;;;0.80;0.73;;;17.90;53.90;;;;;;5072203;28;20189;-68
2022/02/04 12:02:01;;;;;;;1.40;1.00;;;17.80;54.00;;;;;;5082788;28;20187;-68
2022/02/04 12:04:26;;;;;;;4.05;0.77;;;17.80;54.10;;;;;;5080317;28;20166;-68
2022/02/04 12:06:53;;;;;;;1.70;1.10;;;17.80;54.80;;;;;;5082197;28;20170;-70
2022/02/04 12:09:35;;;;;;;0.95;0.85;;;17.80;54.30;;;;;;5064080;28;20556;-67
2022/02/04 12:12:01;;;;;;;0.68;0.68;;;17.80;54.30;;;;;;5063996;28;20253;-66
2022/02/04 12:14:30;;;;;;;0.65;0.60;;;17.80;54.40;;;;;;5083086;28;20511;-69
2022/02/04 12:17:06;;;;;;;0.70;0.70;;;17.80;54.50;;;;;;5081049;28;20566;-67
2022/02/04 12:19:46;;;;;;;0.85;0.80;;;17.80;54.50;;;;;;5081659;28;20185;-69
2022/02/04 12:22:12;;;;;;;1.10;0.90;;;17.70;54.50;;;;;;5081091;28;20170;-66
2022/02/04 12:24:42;;;;;;;0.65;0.65;;;17.70;54.50;;;;;;5085269;28;20180;-66
2022/02/04 12:27:38;;;;;;;0.70;0.70;;;17.70;54.60;;;;;;5089207;28;20178;-67
2022/02/04 12:30:31;;;;;;;2.47;0.80;;;17.60;54.60;;;;;;5051396;28;20187;-67
2022/02/04 12:32:57;;;;;;;1.20;1.10;;;17.60;54.60;;;;;;5071055;28;20245;-67
2022/02/04 12:35:27;;;;;;;1.40;0.73;;;17.60;54.70;;;;;;5054361;28;20209;-68
2022/02/04 12:37:52;;;;;;;1.60;0.90;;;17.60;54.60;;;;;;5061213;28;20209;-68
2022/02/04 12:40:18;;;;;;;2.05;0.80;;;17.70;54.50;;;;;;5073019;28;20258;-67
2022/02/04 12:42:44;;;;;;;0.80;0.60;;;17.70;54.60;;;;;;5073909;28;20636;-67
2022/02/04 12:45:13;;;;;;;0.70;0.65;;;17.70;54.60;;;;;;5090555;28;20174;-67
2022/02/04 12:47:39;;;;;;;0.88;0.70;;;17.80;54.60;;;;;;5092182;28;20182;-67
2022/02/04 12:50:07;;;;;;;2.20;0.80;;;17.90;54.60;;;;;;5091465;28;20181;-67
2022/02/04 12:52:43;;;;;;;0.80;0.80;;;18.00;54.50;;;;;;5085601;28;20773;-67
2022/02/04 12:55:12;;;;;;;0.82;0.82;;;18.10;54.40;;;;;;5071301;28;20289;-67
2022/02/04 12:57:56;;;;;;;0.82;0.60;;;18.10;54.20;;;;;;5071731;28;20225;-67
2022/02/04 13:03:19;;;;;;;1.38;0.70;;;18.40;53.70;;;;;;5071203;28;20316;-67
2022/02/04 13:08:49;;;;;;;0.70;0.70;;;18.60;53.30;;;;;;5071164;28;20675;-67
2022/02/04 13:11:17;;;;;;;0.88;0.70;;;18.60;53.00;;;;;;5071599;28;20220;-66
2022/02/04 13:13:50;;;;;;;0.70;0.60;;;18.70;52.90;;;;;;5070766;28;20183;-66
2022/02/04 13:16:22;;;;;;;0.40;0.40;;;18.80;52.80;;;;;;5071066;28;20259;-68
2022/02/04 13:18:48;;;;;;;0.70;0.70;;;18.80;52.60;;;;;;5071257;28;20232;-67
2022/02/04 13:21:14;;;;;;;0.60;0.60;;;18.90;52.60;;;;;;5071839;28;20575;-67
2022/02/04 13:23:39;;;;;;;0.63;0.63;;;18.90;52.50;;;;;;5074891;28;20174;-67
2022/02/04 13:26:05;;;;;;;1.02;0.77;;;19.00;52.50;;;;;;5074583;28;20555;-67
2022/02/04 13:28:41;;;;;;;0.63;0.60;;;19.00;52.40;;;;;;5074014;28;20174;-67
2022/02/04 13:31:12;;;;;;;0.82;0.63;;;19.00;52.40;;;;;;5073780;28;20194;-68
2022/02/04 13:33:38;;;;;;;1.52;1.10;;;19.00;52.40;;;;;;5074887;28;20186;-68
2022/02/04 13:36:37;;;;;;;0.50;0.50;;;19.00;52.30;;;;;;5073700;28;20240;-68
2022/02/04 13:44:46;;;;;;;0.82;0.82;;;19.00;52.20;;;;;;5054535;28;20171;-67
2022/02/04 13:52:50;;;;;;;0.85;0.85;;;18.80;52.50;;;;;;5054412;28;20456;-67
2022/02/04 13:55:32;;;;;;;0.57;0.57;;;18.70;52.60;;;;;;5053552;28;20225;-67
2022/02/04 13:58:26;;;;;;;0.50;0.50;;;18.70;52.60;;;;;;5054031;28;20243;-69
2022/02/04 14:04:01;;;;;;;0.77;0.77;;;18.70;52.70;;;;;;5019298;28;20182;-67
2022/02/04 14:06:29;;;;;;;0.70;0.70;;;18.60;52.80;;;;;;5054226;28;20221;-68
2022/02/04 14:08:58;;;;;;;0.60;0.60;;;18.50;52.80;;;;;;5053897;28;20179;-67
2022/02/04 14:11:38;;;;;;;1.05;0.60;;;18.50;52.90;;;;;;5053076;28;20581;-66
2022/02/04 14:14:21;;;;;;;0.60;0.60;;;18.50;53.00;;;;;;5053421;28;20183;-68
2022/02/04 14:16:56;;;;;;;0.82;0.68;;;18.40;53.00;;;;;;5053101;28;20198;-68
2022/02/04 14:19:25;;;;;;;0.60;0.60;;;18.40;53.10;;;;;;5053612;28;20638;-67
2022/02/04 14:21:50;;;;;;;0.55;0.55;;;18.40;53.10;;;;;;5053900;28;20282;-66
2022/02/04 14:24:16;;;;;;;1.38;0.73;;;18.50;53.20;;;;;;5052805;28;20269;-66
2022/02/04 14:26:47;;;;;;;0.60;0.60;;;18.40;53.10;;;;;;5053638;28;20219;-66
2022/02/04 14:29:20;;;;;;;1.55;0.82;;;18.50;53.10;;;;;;5053425;28;20237;-67
2022/02/04 14:31:58;;;;;;;0.88;0.73;;;18.50;53.00;;;;;;5052643;28;20175;-68
2022/02/04 15:01:30;;;;;;;0.65;0.65;;;18.50;53.20;;;;;;5067341;28;20178;-67
2022/02/04 15:04:09;;;;;;;0.80;0.80;;;18.40;53.10;;;;;;5036657;28;20155;-67
2022/02/04 15:06:38;;;;;;;0.73;0.60;;;18.50;53.10;;;;;;5052079;28;20186;-67
2022/02/04 15:09:13;;;;;;;1.48;0.60;;;18.50;53.10;;;;;;5052655;28;20206;-66
2022/02/04 15:11:43;;;;;;;0.73;0.73;;;18.40;53.10;;;;;;5053102;28;20163;-65
2022/02/04 15:14:09;;;;;;;0.65;0.65;;;18.40;53.20;;;;;;5051923;28;20182;-66
2022/02/04 15:16:35;;;;;;;0.73;0.73;;;18.30;53.20;;;;;;5052825;28;20211;-66
2022/02/04 15:19:00;;;;;;;0.70;0.57;;;18.30;53.30;;;;;;5052406;28;20171;-66
2022/02/04 15:21:26;;;;;;;0.60;0.60;;;18.30;53.30;;;;;;5051782;28;20658;-66
2022/02/04 15:23:52;;;;;;;0.60;0.60;;;18.30;53.40;;;;;;5052781;28;20171;-65
2022/02/04 15:26:20;;;;;;;0.50;0.50;;;18.30;53.40;;;;;;5053141;28;20202;-66
2022/02/04 15:28:55;;;;;;;0.88;0.50;;;18.30;53.40;;;;;;5072150;28;20183;-66
2022/02/04 15:33:50;;;;;;;0.90;0.70;;;18.40;53.30;;;;;;5071909;28;20166;-67
2022/02/04 15:36:25;;;;;;;1.30;0.60;;;18.40;53.30;;;;;;5071883;28;20610;-67
2022/02/04 15:38:51;;;;;;;0.57;0.57;;;18.50;53.30;;;;;;5057943;28;20190;-63
2022/02/04 15:41:17;;;;;;;1.23;0.50;;;18.40;53.30;;;;;;5051456;28;20608;-62
2022/02/04 15:43:42;;;;;;;0.60;0.30;;;18.40;53.40;;;;;;5052629;28;20282;-68
2022/02/04 15:49:11;;;;;;;1.70;0.70;;;18.40;53.60;;;;;;5051793;28;20262;-65
2022/02/04 15:51:46;;;;;;;0.63;0.60;;;18.40;53.60;;;;;;5052815;28;20179;-65
2022/02/04 15:56:56;;;;;;;1.17;0.68;;;18.50;53.70;;;;;;5071949;28;20649;-65
2022/02/04 16:04:45;;;;;;;3.83;0.50;;;18.70;53.40;;;;;;5092873;28;20181;-66
2022/02/04 16:07:10;;;;;;;0.55;0.50;;;18.80;53.30;;;;;;5092372;28;20182;-66
2022/02/04 16:09:37;;;;;;;0.57;0.55;;;19.00;53.00;;;;;;5091967;28;20189;-66
2022/02/04 16:12:10;;;;;;;0.52;0.40;;;19.00;52.90;;;;;;5092282;28;20723;-65
2022/02/04 16:14:46;;;;;;;0.55;0.50;;;19.10;52.70;;;;;;5092827;28;20196;-66
2022/02/04 16:17:28;;;;;;;0.40;0.30;;;19.20;52.60;;;;;;5091616;28;20225;-66
2022/02/04 16:25:38;;;;;;;1.02;0.57;;;19.40;52.30;;;;;;5091742;28;20203;-67
2022/02/04 16:30:47;;;;;;;0.60;0.60;;;19.40;52.20;;;;;;5090564;28;20318;-67
2022/02/04 16:33:13;;;;;;;0.73;0.70;;;19.40;52.30;;;;;;5072051;28;20211;-68
2022/02/04 16:35:39;;;;;;;0.20;0.20;;;19.40;52.20;;;;;;5077514;28;20283;-67
2022/02/04 16:38:05;;;;;;;0.20;0.20;;;19.40;52.20;;;;;;5082890;28;20222;-67
2022/02/04 16:40:34;;;;;;;0.38;0.38;;;19.40;52.10;;;;;;5072291;28;20572;-68
2022/02/04 16:43:00;;;;;;;0.32;0.30;;;19.40;52.10;;;;;;5071883;28;20182;-66
2022/02/04 16:45:26;;;;;;;0.30;0.30;;;19.40;52.10;;;;;;5071685;28;20185;-67
2022/02/04 16:47:52;;;;;;;0.30;0.30;;;19.40;52.00;;;;;;5072379;28;20544;-67
2022/02/04 16:50:21;;;;;;;0.40;0.40;;;19.40;52.10;;;;;;5072203;28;20178;-67
2022/02/04 16:52:48;;;;;;;0.45;0.45;;;19.40;52.10;;;;;;5064655;28;20589;-67
2022/02/04 16:55:13;;;;;;;0.90;0.30;;;19.40;52.10;;;;;;5034102;28;20211;-67
2022/02/04 16:57:40;;;;;;;0.40;0.40;;;19.40;52.10;;;;;;5056034;28;20179;-68
2022/02/04 17:00:27;;;;;;;0.35;0.28;;;19.40;52.10;;;;;;5054953;28;20229;-67
2022/02/04 17:02:56;;;;;;;0.55;0.40;;;19.40;52.10;;;;;;5057829;28;21619;-59
2022/02/04 17:05:23;;;;;;;0.38;0.30;;;19.40;52.10;;;;;;5064068;28;20294;-60
2022/02/04 17:08:05;;;;;;;0.47;0.20;;;19.40;52.10;;;;;;5057085;28;20207;-64
2022/02/04 17:10:32;;;;;;;0.55;0.30;;;19.30;52.10;;;;;;5056152;28;20611;-61
2022/02/04 17:13:00;;;;;;;1.90;0.40;;;19.20;52.10;;;;;;5054190;28;20199;-60
2022/02/04 17:15:33;;;;;;;1.52;0.40;;;19.10;52.20;;;;;;5055373;28;20293;-62
2022/02/04 17:17:59;;;;;;;0.40;0.40;;;19.00;52.30;;;;;;5055205;28;20210;-62
2022/02/04 17:20:25;;;;;;;1.85;0.30;;;19.00;52.40;;;;;;5054842;28;20179;-61
2022/02/04 17:22:51;;;;;;;0.57;0.40;;;18.90;52.40;;;;;;5055808;28;20577;-60
2022/02/04 17:25:17;;;;;;;1.15;0.50;;;19.00;52.40;;;;;;5055617;28;20178;-60
2022/02/04 17:27:44;;;;;;;0.52;0.35;;;19.00;52.50;;;;;;5055032;28;20179;-60
2022/02/04 17:30:12;;;;;;;0.70;0.50;;;19.10;52.60;;;;;;5055376;28;20191;-60
2022/02/04 17:32:42;;;;;;;1.02;0.47;;;19.00;52.60;;;;;;5055539;28;20175;-59
2022/02/04 17:35:09;;;;;;;0.45;0.45;;;19.10;52.70;;;;;;5054337;28;20175;-60
2022/02/04 17:37:34;;;;;;;0.30;0.30;;;19.10;52.70;;;;;;5059493;28;20187;-61
2022/02/04 17:40:03;;;;;;;2.65;0.50;;;19.10;52.70;;;;;;5074967;28;20178;-62
2022/02/04 17:42:29;;;;;;;0.65;0.65;;;19.20;52.70;;;;;;5074737;28;20193;-61
2022/02/04 17:44:54;;;;;;;1.00;0.30;;;19.20;52.70;;;;;;5074928;28;20167;-61
2022/02/04 17:47:24;;;;;;;1.35;0.43;;;19.20;52.80;;;;;;5075124;28;20664;-61
2022/02/04 17:50:02;;;;;;;0.93;0.50;;;19.20;52.80;;;;;;5065301;28;20181;-63
2022/02/04 17:52:52;;;;;;;0.98;0.50;;;19.30;52.80;;;;;;5065149;28;20218;-63
2022/02/04 17:55:22;;;;;;;1.45;0.52;;;19.30;52.70;;;;;;5063934;28;20532;-64
2022/02/04 17:57:54;;;;;;;0.45;0.45;;;19.30;52.70;;;;;;5070474;28;20187;-63
2022/02/04 18:05:40;;;;;;;1.00;0.40;;;19.30;52.80;;;;;;5054447;28;20258;-61
2022/02/04 18:08:06;;;;;;;0.82;0.47;;;19.20;52.80;;;;;;5053120;28;20178;-61
2022/02/04 18:10:32;;;;;;;0.40;0.40;;;19.20;52.80;;;;;;5053510;28;20183;-63
2022/02/04 18:12:57;;;;;;;0.77;0.60;;;19.10;52.90;;;;;;5054711;28;20171;-63
2022/02/04 18:15:23;;;;;;;1.05;0.40;;;19.00;53.00;;;;;;5054151;28;20207;-63
2022/02/04 18:17:48;;;;;;;0.38;0.30;;;19.00;53.00;;;;;;5067104;28;20228;-63
2022/02/04 18:20:14;;;;;;;0.80;0.60;;;19.00;53.00;;;;;;5073980;28;20167;-61
2022/02/04 18:22:39;;;;;;;4.47;0.65;;;19.00;53.10;;;;;;5073494;28;20175;-62
2022/02/04 18:25:05;;;;;;;0.98;0.60;;;19.00;53.00;;;;;;5073868;28;20182;-61
2022/02/04 18:27:31;;;;;;;0.50;0.50;;;19.10;53.10;;;;;;5074217;28;20182;-61
2022/02/04 18:29:58;;;;;;;0.70;0.60;;;19.10;53.10;;;;;;5073325;28;20277;-61
2022/02/04 18:32:24;;;;;;;0.30;0.30;;;19.10;52.90;;;;;;5074139;28;20510;-61
2022/02/04 18:34:53;;;;;;;0.43;0.40;;;19.10;52.90;;;;;;5074149;28;20209;-61
2022/02/04 18:37:20;;;;;;;1.05;0.40;;;19.10;52.80;;;;;;5071331;28;20496;-61
2022/02/04 18:45:00;;;;;;;1.35;0.85;;;19.00;52.80;;;;;;5070620;28;20232;-61
2022/02/04 18:47:32;;;;;;;1.00;0.38;;;19.00;52.80;;;;;;5073787;28;20571;-61
2022/02/04 18:55:59;;;;;;;2.03;0.50;;;18.90;53.00;;;;;;5073843;28;20202;-63
2022/02/04 18:58:26;;;;;;;0.82;0.52;;;18.90;52.90;;;;;;5073178;28;20183;-65
2022/02/04 19:00:54;;;;;;;0.68;0.60;;;18.90;52.90;;;;;;5069916;28;20171;-60
2022/02/04 19:03:25;;;;;;;0.55;0.55;;;19.00;52.90;;;;;;5053885;28;20257;-60
2022/02/04 19:06:11;;;;;;;0.90;0.65;;;19.00;52.80;;;;;;5052832;28;20187;-63
2022/02/04 19:08:42;;;;;;;0.93;0.50;;;19.00;52.70;;;;;;5053713;28;20209;-63
2022/02/04 19:11:09;;;;;;;0.98;0.50;;;19.00;52.90;;;;;;5053177;28;20538;-65
2022/02/04 19:13:40;;;;;;;1.25;0.75;;;18.90;52.90;;;;;;5052900;28;20254;-65
2022/02/04 19:16:15;;;;;;;3.25;0.80;;;18.90;53.00;;;;;;5053062;28;20210;-62